sensor_id;sensor_type;location;lat;lon;timestamp;pressure;altitude;pressure_sealevel;temperature
79495;BMP180;68951;53.130;18.104;2023-06-04T00:02:21;101775.60;;;
79495;BMP180;68951;53.130;18.104;2023-06-04T00:04:48;101776.40;;;
79495;BMP180;68951;53.130;18.104;2023-06-04T00:07:15;101780.40;;;
79495;BMP180;68951;53.130;18.104;2023-06-04T00:09:42;101776.60;;;
79495;BMP180;68951;53.130;18.104;2023-06-04T00:12:10;101775.00;;;
79495;BMP180;68951;53.130;18.104;2023-06-04T00:14:37;101773.80;;;
79495;BMP180;68951;53.130;18.104;2023-06-04T00:17:05;101773.40;;;
79495;BMP180;68951;53.130;18.104;2023-06-04T00:19:31;101766.20;;;
79495;BMP180;68951;53.130;18.104;2023-06-04T00:22:00;101762.60;;;
79495;BMP180;68951;53.130;18.104;2023-06-04T00:24:27;101764.20;;;
79495;BMP180;68951;53.130;18.104;2023-06-04T00:26:54;101760.20;;;
79495;BMP180;68951;53.130;18.104;2023-06-04T00:29:21;101756.60;;;
79495;BMP180;68951;53.130;18.104;2023-06-04T00:31:47;101754.60;;;
79495;BMP180;68951;53.130;18.104;2023-06-04T00:34:17;101752.80;;;
79495;BMP180;68951;53.130;18.104;2023-06-04T00:36:45;101757.00;;;
79495;BMP180;68951;53.130;18.104;2023-06-04T00:39:11;101754.00;;;
79495;BMP180;68951;53.130;18.104;2023-06-04T00:41:38;101748.00;;;
79495;BMP180;68951;53.130;18.104;2023-06-04T00:44:05;101748.60;;;
79495;BMP180;68951;53.130;18.104;2023-06-04T00:46:34;101747.80;;;
79495;BMP180;68951;53.130;18.104;2023-06-04T00:49:04;101744.40;;;
79495;BMP180;68951;53.130;18.104;2023-06-04T00:51:32;101743.00;;;
79495;BMP180;68951;53.130;18.104;2023-06-04T00:54:00;101744.80;;;
79495;BMP180;68951;53.130;18.104;2023-06-04T00:56:29;101743.80;;;
79495;BMP180;68951;53.130;18.104;2023-06-04T00:58:56;101746.40;;;
79495;BMP180;68951;53.130;18.104;2023-06-04T01:04:18;101743.20;;;
79495;BMP180;68951;53.130;18.104;2023-06-04T01:06:50;101741.00;;;
79495;BMP180;68951;53.130;18.104;2023-06-04T01:09:18;101740.20;;;
79495;BMP180;68951;53.130;18.104;2023-06-04T01:11:45;101738.00;;;
79495;BMP180;68951;53.130;18.104;2023-06-04T01:14:12;101740.40;;;
79495;BMP180;68951;53.130;18.104;2023-06-04T01:20:02;101731.40;;;
79495;BMP180;68951;53.130;18.104;2023-06-04T01:25:41;101737.00;;;
79495;BMP180;68951;53.130;18.104;2023-06-04T01:28:10;101742.00;;;
79495;BMP180;68951;53.130;18.104;2023-06-04T01:30:40;101736.80;;;
79495;BMP180;68951;53.130;18.104;2023-06-04T01:33:15;101740.00;;;
79495;BMP180;68951;53.130;18.104;2023-06-04T01:35:43;101741.00;;;
79495;BMP180;68951;53.130;18.104;2023-06-04T01:38:10;101742.60;;;
79495;BMP180;68951;53.130;18.104;2023-06-04T01:40:37;101736.80;;;
79495;BMP180;68951;53.130;18.104;2023-06-04T01:43:04;101740.20;;;
79495;BMP180;68951;53.130;18.104;2023-06-04T01:45:31;101742.80;;;
79495;BMP180;68951;53.130;18.104;2023-06-04T01:48:02;101744.60;;;
79495;BMP180;68951;53.130;18.104;2023-06-04T01:50:29;101741.00;;;
79495;BMP180;68951;53.130;18.104;2023-06-04T01:52:57;101740.00;;;
79495;BMP180;68951;53.130;18.104;2023-06-04T01:55:24;101737.80;;;
79495;BMP180;68951;53.130;18.104;2023-06-04T01:57:52;101740.40;;;
79495;BMP180;68951;53.130;18.104;2023-06-04T02:00:18;101736.60;;;
79495;BMP180;68951;53.130;18.104;2023-06-04T02:02:47;101738.40;;;
79495;BMP180;68951;53.130;18.104;2023-06-04T02:05:17;101741.00;;;
79495;BMP180;68951;53.130;18.104;2023-06-04T02:07:46;101736.20;;;
79495;BMP180;68951;53.130;18.104;2023-06-04T02:10:19;101739.80;;;
79495;BMP180;68951;53.130;18.104;2023-06-04T02:12:56;101739.20;;;
79495;BMP180;68951;53.130;18.104;2023-06-04T02:15:25;101743.40;;;
79495;BMP180;68951;53.130;18.104;2023-06-04T02:17:56;101740.60;;;
79495;BMP180;68951;53.130;18.104;2023-06-04T02:20:28;101742.00;;;
79495;BMP180;68951;53.130;18.104;2023-06-04T02:22:55;101735.60;;;
79495;BMP180;68951;53.130;18.104;2023-06-04T02:25:25;101737.40;;;
79495;BMP180;68951;53.130;18.104;2023-06-04T02:27:52;101738.40;;;
79495;BMP180;68951;53.130;18.104;2023-06-04T02:30:19;101736.20;;;
79495;BMP180;68951;53.130;18.104;2023-06-04T02:32:45;101737.20;;;
79495;BMP180;68951;53.130;18.104;2023-06-04T02:35:13;101741.60;;;
79495;BMP180;68951;53.130;18.104;2023-06-04T02:37:40;101737.40;;;
79495;BMP180;68951;53.130;18.104;2023-06-04T02:40:08;101736.60;;;
79495;BMP180;68951;53.130;18.104;2023-06-04T02:42:35;101739.40;;;
79495;BMP180;68951;53.130;18.104;2023-06-04T02:45:02;101739.40;;;
79495;BMP180;68951;53.130;18.104;2023-06-04T02:47:29;101743.00;;;
79495;BMP180;68951;53.130;18.104;2023-06-04T02:49:56;101743.60;;;
79495;BMP180;68951;53.130;18.104;2023-06-04T02:52:22;101745.80;;;
79495;BMP180;68951;53.130;18.104;2023-06-04T02:54:51;101742.20;;;
79495;BMP180;68951;53.130;18.104;2023-06-04T02:57:18;101740.60;;;
79495;BMP180;68951;53.130;18.104;2023-06-04T02:59:45;101736.20;;;
79495;BMP180;68951;53.130;18.104;2023-06-04T03:02:12;101735.40;;;
79495;BMP180;68951;53.130;18.104;2023-06-04T03:04:39;101738.00;;;
79495;BMP180;68951;53.130;18.104;2023-06-04T03:07:06;101733.80;;;
79495;BMP180;68951;53.130;18.104;2023-06-04T03:09:34;101731.40;;;
79495;BMP180;68951;53.130;18.104;2023-06-04T03:12:01;101728.40;;;
79495;BMP180;68951;53.130;18.104;2023-06-04T03:14:28;101734.00;;;
79495;BMP180;68951;53.130;18.104;2023-06-04T03:17:02;101733.80;;;
79495;BMP180;68951;53.130;18.104;2023-06-04T03:19:38;101733.80;;;
79495;BMP180;68951;53.130;18.104;2023-06-04T03:22:06;101738.40;;;
79495;BMP180;68951;53.130;18.104;2023-06-04T03:24:36;101739.40;;;
79495;BMP180;68951;53.130;18.104;2023-06-04T03:27:05;101740.00;;;
79495;BMP180;68951;53.130;18.104;2023-06-04T03:29:33;101745.00;;;
79495;BMP180;68951;53.130;18.104;2023-06-04T03:32:01;101741.20;;;
79495;BMP180;68951;53.130;18.104;2023-06-04T03:34:28;101739.80;;;
79495;BMP180;68951;53.130;18.104;2023-06-04T03:36:58;101740.20;;;
79495;BMP180;68951;53.130;18.104;2023-06-04T03:39:25;101742.80;;;
79495;BMP180;68951;53.130;18.104;2023-06-04T03:41:53;101739.60;;;
79495;BMP180;68951;53.130;18.104;2023-06-04T03:44:21;101739.00;;;
79495;BMP180;68951;53.130;18.104;2023-06-04T03:46:48;101740.40;;;
79495;BMP180;68951;53.130;18.104;2023-06-04T03:49:15;101737.80;;;
79495;BMP180;68951;53.130;18.104;2023-06-04T03:51:44;101738.20;;;
79495;BMP180;68951;53.130;18.104;2023-06-04T03:54:11;101734.00;;;
79495;BMP180;68951;53.130;18.104;2023-06-04T03:56:38;101732.20;;;
79495;BMP180;68951;53.130;18.104;2023-06-04T03:59:05;101731.00;;;
79495;BMP180;68951;53.130;18.104;2023-06-04T04:01:32;101731.40;;;
79495;BMP180;68951;53.130;18.104;2023-06-04T04:04:00;101732.80;;;
79495;BMP180;68951;53.130;18.104;2023-06-04T04:06:26;101732.00;;;
79495;BMP180;68951;53.130;18.104;2023-06-04T04:08:53;101738.20;;;
79495;BMP180;68951;53.130;18.104;2023-06-04T04:11:20;101742.80;;;
79495;BMP180;68951;53.130;18.104;2023-06-04T04:13:48;101741.00;;;
79495;BMP180;68951;53.130;18.104;2023-06-04T04:16:15;101741.40;;;
79495;BMP180;68951;53.130;18.104;2023-06-04T04:18:43;101739.80;;;
79495;BMP180;68951;53.130;18.104;2023-06-04T04:21:11;101741.00;;;
79495;BMP180;68951;53.130;18.104;2023-06-04T04:23:39;101734.40;;;
79495;BMP180;68951;53.130;18.104;2023-06-04T04:26:09;101734.00;;;
79495;BMP180;68951;53.130;18.104;2023-06-04T04:28:37;101728.80;;;
79495;BMP180;68951;53.130;18.104;2023-06-04T04:31:04;101730.80;;;
79495;BMP180;68951;53.130;18.104;2023-06-04T04:33:31;101725.80;;;
79495;BMP180;68951;53.130;18.104;2023-06-04T04:36:07;101731.40;;;
79495;BMP180;68951;53.130;18.104;2023-06-04T04:38:39;101735.00;;;
79495;BMP180;68951;53.130;18.104;2023-06-04T04:41:07;101728.60;;;
79495;BMP180;68951;53.130;18.104;2023-06-04T04:43:36;101732.00;;;
79495;BMP180;68951;53.130;18.104;2023-06-04T04:46:06;101730.40;;;
79495;BMP180;68951;53.130;18.104;2023-06-04T04:48:33;101730.40;;;
79495;BMP180;68951;53.130;18.104;2023-06-04T04:51:00;101729.20;;;
79495;BMP180;68951;53.130;18.104;2023-06-04T04:53:27;101727.20;;;
79495;BMP180;68951;53.130;18.104;2023-06-04T04:55:54;101729.00;;;
79495;BMP180;68951;53.130;18.104;2023-06-04T04:58:21;101730.20;;;
79495;BMP180;68951;53.130;18.104;2023-06-04T05:00:48;101732.00;;;
79495;BMP180;68951;53.130;18.104;2023-06-04T05:03:14;101731.60;;;
79495;BMP180;68951;53.130;18.104;2023-06-04T05:05:42;101736.80;;;
79495;BMP180;68951;53.130;18.104;2023-06-04T05:08:10;101737.00;;;
79495;BMP180;68951;53.130;18.104;2023-06-04T05:10:36;101739.60;;;
79495;BMP180;68951;53.130;18.104;2023-06-04T05:13:03;101740.60;;;
79495;BMP180;68951;53.130;18.104;2023-06-04T05:15:32;101747.00;;;
79495;BMP180;68951;53.130;18.104;2023-06-04T05:17:59;101746.80;;;
79495;BMP180;68951;53.130;18.104;2023-06-04T05:20:29;101750.80;;;
79495;BMP180;68951;53.130;18.104;2023-06-04T05:22:56;101754.60;;;
79495;BMP180;68951;53.130;18.104;2023-06-04T05:25:23;101756.20;;;
79495;BMP180;68951;53.130;18.104;2023-06-04T05:27:50;101760.60;;;
79495;BMP180;68951;53.130;18.104;2023-06-04T05:30:17;101758.40;;;
79495;BMP180;68951;53.130;18.104;2023-06-04T05:32:44;101754.20;;;
79495;BMP180;68951;53.130;18.104;2023-06-04T05:35:11;101751.80;;;
79495;BMP180;68951;53.130;18.104;2023-06-04T05:37:38;101758.40;;;
79495;BMP180;68951;53.130;18.104;2023-06-04T05:40:09;101757.00;;;
79495;BMP180;68951;53.130;18.104;2023-06-04T05:42:36;101764.00;;;
79495;BMP180;68951;53.130;18.104;2023-06-04T05:45:05;101761.20;;;
79495;BMP180;68951;53.130;18.104;2023-06-04T05:47:32;101765.00;;;
79495;BMP180;68951;53.130;18.104;2023-06-04T05:49:59;101769.00;;;
79495;BMP180;68951;53.130;18.104;2023-06-04T05:52:26;101772.80;;;
79495;BMP180;68951;53.130;18.104;2023-06-04T05:54:52;101780.00;;;
79495;BMP180;68951;53.130;18.104;2023-06-04T05:57:20;101776.60;;;
79495;BMP180;68951;53.130;18.104;2023-06-04T05:59:47;101782.80;;;
79495;BMP180;68951;53.130;18.104;2023-06-04T06:02:14;101783.60;;;
79495;BMP180;68951;53.130;18.104;2023-06-04T06:04:41;101782.40;;;
79495;BMP180;68951;53.130;18.104;2023-06-04T06:07:08;101782.20;;;
79495;BMP180;68951;53.130;18.104;2023-06-04T06:09:35;101783.80;;;
79495;BMP180;68951;53.130;18.104;2023-06-04T06:12:03;101779.20;;;
79495;BMP180;68951;53.130;18.104;2023-06-04T06:14:30;101780.80;;;
79495;BMP180;68951;53.130;18.104;2023-06-04T06:16:57;101781.00;;;
79495;BMP180;68951;53.130;18.104;2023-06-04T06:19:24;101781.80;;;
79495;BMP180;68951;53.130;18.104;2023-06-04T06:21:51;101790.00;;;
79495;BMP180;68951;53.130;18.104;2023-06-04T06:24:18;101791.80;;;
79495;BMP180;68951;53.130;18.104;2023-06-04T06:26:45;101793.20;;;
79495;BMP180;68951;53.130;18.104;2023-06-04T06:29:11;101792.60;;;
79495;BMP180;68951;53.130;18.104;2023-06-04T06:31:38;101789.00;;;
79495;BMP180;68951;53.130;18.104;2023-06-04T06:34:05;101792.40;;;
79495;BMP180;68951;53.130;18.104;2023-06-04T06:36:32;101793.40;;;
79495;BMP180;68951;53.130;18.104;2023-06-04T06:39:00;101800.40;;;
79495;BMP180;68951;53.130;18.104;2023-06-04T06:41:27;101800.40;;;
79495;BMP180;68951;53.130;18.104;2023-06-04T06:43:59;101799.80;;;
79495;BMP180;68951;53.130;18.104;2023-06-04T06:46:26;101801.00;;;
79495;BMP180;68951;53.130;18.104;2023-06-04T06:48:52;101802.80;;;
79495;BMP180;68951;53.130;18.104;2023-06-04T06:51:19;101800.20;;;
79495;BMP180;68951;53.130;18.104;2023-06-04T06:53:49;101796.60;;;
79495;BMP180;68951;53.130;18.104;2023-06-04T06:56:17;101801.20;;;
79495;BMP180;68951;53.130;18.104;2023-06-04T06:58:47;101803.80;;;
79495;BMP180;68951;53.130;18.104;2023-06-04T07:01:14;101801.40;;;
79495;BMP180;68951;53.130;18.104;2023-06-04T07:03:41;101804.00;;;
79495;BMP180;68951;53.130;18.104;2023-06-04T07:06:08;101804.00;;;
79495;BMP180;68951;53.130;18.104;2023-06-04T07:08:35;101799.00;;;
79495;BMP180;68951;53.130;18.104;2023-06-04T07:11:03;101800.80;;;
79495;BMP180;68951;53.130;18.104;2023-06-04T07:13:30;101798.00;;;
79495;BMP180;68951;53.130;18.104;2023-06-04T07:15:59;101793.40;;;
79495;BMP180;68951;53.130;18.104;2023-06-04T07:18:26;101795.80;;;
79495;BMP180;68951;53.130;18.104;2023-06-04T07:20:53;101799.60;;;
79495;BMP180;68951;53.130;18.104;2023-06-04T07:23:20;101799.40;;;
79495;BMP180;68951;53.130;18.104;2023-06-04T07:25:47;101801.20;;;
79495;BMP180;68951;53.130;18.104;2023-06-04T07:28:14;101801.20;;;
79495;BMP180;68951;53.130;18.104;2023-06-04T07:30:41;101798.80;;;
79495;BMP180;68951;53.130;18.104;2023-06-04T07:33:08;101799.80;;;
79495;BMP180;68951;53.130;18.104;2023-06-04T07:35:35;101800.60;;;
79495;BMP180;68951;53.130;18.104;2023-06-04T07:38:03;101796.40;;;
79495;BMP180;68951;53.130;18.104;2023-06-04T07:40:30;101800.00;;;
79495;BMP180;68951;53.130;18.104;2023-06-04T07:42:57;101805.00;;;
79495;BMP180;68951;53.130;18.104;2023-06-04T07:45:24;101802.60;;;
79495;BMP180;68951;53.130;18.104;2023-06-04T07:47:51;101800.00;;;
79495;BMP180;68951;53.130;18.104;2023-06-04T07:50:18;101804.20;;;
79495;BMP180;68951;53.130;18.104;2023-06-04T07:52:45;101801.40;;;
79495;BMP180;68951;53.130;18.104;2023-06-04T07:55:11;101802.00;;;
79495;BMP180;68951;53.130;18.104;2023-06-04T07:57:38;101800.20;;;
79495;BMP180;68951;53.130;18.104;2023-06-04T08:00:06;101798.40;;;
79495;BMP180;68951;53.130;18.104;2023-06-04T08:02:34;101795.80;;;
79495;BMP180;68951;53.130;18.104;2023-06-04T08:05:01;101795.60;;;
79495;BMP180;68951;53.130;18.104;2023-06-04T08:07:29;101797.20;;;
79495;BMP180;68951;53.130;18.104;2023-06-04T08:09:56;101795.20;;;
79495;BMP180;68951;53.130;18.104;2023-06-04T08:12:23;101795.40;;;
79495;BMP180;68951;53.130;18.104;2023-06-04T08:14:50;101791.20;;;
79495;BMP180;68951;53.130;18.104;2023-06-04T08:17:17;101795.40;;;
79495;BMP180;68951;53.130;18.104;2023-06-04T08:19:44;101794.20;;;
79495;BMP180;68951;53.130;18.104;2023-06-04T08:22:11;101797.20;;;
79495;BMP180;68951;53.130;18.104;2023-06-04T08:24:39;101798.80;;;
79495;BMP180;68951;53.130;18.104;2023-06-04T08:27:06;101800.40;;;
79495;BMP180;68951;53.130;18.104;2023-06-04T08:29:35;101798.40;;;
79495;BMP180;68951;53.130;18.104;2023-06-04T08:32:03;101794.80;;;
79495;BMP180;68951;53.130;18.104;2023-06-04T08:34:30;101791.20;;;
79495;BMP180;68951;53.130;18.104;2023-06-04T08:36:57;101789.20;;;
79495;BMP180;68951;53.130;18.104;2023-06-04T08:39:24;101788.40;;;
79495;BMP180;68951;53.130;18.104;2023-06-04T08:41:56;101787.20;;;
79495;BMP180;68951;53.130;18.104;2023-06-04T08:44:27;101788.00;;;
79495;BMP180;68951;53.130;18.104;2023-06-04T08:47:04;101791.20;;;
79495;BMP180;68951;53.130;18.104;2023-06-04T08:49:36;101792.40;;;
79495;BMP180;68951;53.130;18.104;2023-06-04T08:52:03;101792.20;;;
79495;BMP180;68951;53.130;18.104;2023-06-04T08:54:32;101795.40;;;
79495;BMP180;68951;53.130;18.104;2023-06-04T08:57:00;101795.60;;;
79495;BMP180;68951;53.130;18.104;2023-06-04T08:59:27;101802.20;;;
79495;BMP180;68951;53.130;18.104;2023-06-04T09:01:56;101799.80;;;
79495;BMP180;68951;53.130;18.104;2023-06-04T09:04:24;101798.00;;;
79495;BMP180;68951;53.130;18.104;2023-06-04T09:06:53;101794.00;;;
79495;BMP180;68951;53.130;18.104;2023-06-04T09:09:23;101792.40;;;
79495;BMP180;68951;53.130;18.104;2023-06-04T09:11:55;101792.20;;;
79495;BMP180;68951;53.130;18.104;2023-06-04T09:14:24;101787.40;;;
79495;BMP180;68951;53.130;18.104;2023-06-04T09:16:53;101794.20;;;
79495;BMP180;68951;53.130;18.104;2023-06-04T09:19:22;101795.00;;;
79495;BMP180;68951;53.130;18.104;2023-06-04T09:21:55;101794.80;;;
79495;BMP180;68951;53.130;18.104;2023-06-04T09:24:24;101790.80;;;
79495;BMP180;68951;53.130;18.104;2023-06-04T09:26:52;101795.60;;;
79495;BMP180;68951;53.130;18.104;2023-06-04T09:29:19;101789.80;;;
79495;BMP180;68951;53.130;18.104;2023-06-04T09:31:47;101788.40;;;
79495;BMP180;68951;53.130;18.104;2023-06-04T09:34:28;101785.20;;;
79495;BMP180;68951;53.130;18.104;2023-06-04T09:36:55;101787.80;;;
79495;BMP180;68951;53.130;18.104;2023-06-04T09:39:23;101788.20;;;
79495;BMP180;68951;53.130;18.104;2023-06-04T09:42:01;101783.80;;;
79495;BMP180;68951;53.130;18.104;2023-06-04T09:44:31;101780.20;;;
79495;BMP180;68951;53.130;18.104;2023-06-04T09:46:58;101783.40;;;
79495;BMP180;68951;53.130;18.104;2023-06-04T09:49:25;101780.60;;;
79495;BMP180;68951;53.130;18.104;2023-06-04T09:51:52;101779.00;;;
79495;BMP180;68951;53.130;18.104;2023-06-04T09:54:19;101778.20;;;
79495;BMP180;68951;53.130;18.104;2023-06-04T09:56:46;101781.20;;;
79495;BMP180;68951;53.130;18.104;2023-06-04T09:59:13;101782.20;;;
79495;BMP180;68951;53.130;18.104;2023-06-04T10:01:41;101781.00;;;
79495;BMP180;68951;53.130;18.104;2023-06-04T10:04:09;101787.40;;;
79495;BMP180;68951;53.130;18.104;2023-06-04T10:06:39;101782.60;;;
79495;BMP180;68951;53.130;18.104;2023-06-04T10:09:08;101785.00;;;
79495;BMP180;68951;53.130;18.104;2023-06-04T10:11:44;101780.00;;;
79495;BMP180;68951;53.130;18.104;2023-06-04T10:14:23;101777.40;;;
79495;BMP180;68951;53.130;18.104;2023-06-04T10:16:56;101782.40;;;
79495;BMP180;68951;53.130;18.104;2023-06-04T10:19:24;101781.60;;;
79495;BMP180;68951;53.130;18.104;2023-06-04T10:21:52;101786.20;;;
79495;BMP180;68951;53.130;18.104;2023-06-04T10:24:19;101781.80;;;
79495;BMP180;68951;53.130;18.104;2023-06-04T10:26:48;101782.40;;;
79495;BMP180;68951;53.130;18.104;2023-06-04T10:29:16;101787.80;;;
79495;BMP180;68951;53.130;18.104;2023-06-04T10:31:44;101783.80;;;
79495;BMP180;68951;53.130;18.104;2023-06-04T10:34:11;101784.20;;;
79495;BMP180;68951;53.130;18.104;2023-06-04T10:36:44;101783.40;;;
79495;BMP180;68951;53.130;18.104;2023-06-04T10:39:12;101784.00;;;
79495;BMP180;68951;53.130;18.104;2023-06-04T10:41:39;101779.40;;;
79495;BMP180;68951;53.130;18.104;2023-06-04T10:44:06;101785.00;;;
79495;BMP180;68951;53.130;18.104;2023-06-04T10:46:41;101781.00;;;
79495;BMP180;68951;53.130;18.104;2023-06-04T10:49:10;101779.40;;;
79495;BMP180;68951;53.130;18.104;2023-06-04T10:51:38;101785.60;;;
79495;BMP180;68951;53.130;18.104;2023-06-04T10:54:05;101779.40;;;
79495;BMP180;68951;53.130;18.104;2023-06-04T10:56:34;101780.80;;;
79495;BMP180;68951;53.130;18.104;2023-06-04T10:59:14;101775.20;;;
79495;BMP180;68951;53.130;18.104;2023-06-04T11:01:43;101777.00;;;
79495;BMP180;68951;53.130;18.104;2023-06-04T11:04:22;101785.00;;;
79495;BMP180;68951;53.130;18.104;2023-06-04T11:07:06;101776.40;;;
79495;BMP180;68951;53.130;18.104;2023-06-04T11:09:38;101778.20;;;
79495;BMP180;68951;53.130;18.104;2023-06-04T11:12:14;101780.60;;;
79495;BMP180;68951;53.130;18.104;2023-06-04T11:14:41;101780.80;;;
79495;BMP180;68951;53.130;18.104;2023-06-04T11:17:13;101784.40;;;
79495;BMP180;68951;53.130;18.104;2023-06-04T11:19:40;101783.00;;;
79495;BMP180;68951;53.130;18.104;2023-06-04T11:22:11;101775.20;;;
79495;BMP180;68951;53.130;18.104;2023-06-04T11:24:39;101779.20;;;
79495;BMP180;68951;53.130;18.104;2023-06-04T11:27:06;101778.60;;;
79495;BMP180;68951;53.130;18.104;2023-06-04T11:29:33;101778.60;;;
79495;BMP180;68951;53.130;18.104;2023-06-04T11:32:00;101775.00;;;
79495;BMP180;68951;53.130;18.104;2023-06-04T11:34:29;101775.60;;;
79495;BMP180;68951;53.130;18.104;2023-06-04T11:37:07;101779.40;;;
79495;BMP180;68951;53.130;18.104;2023-06-04T11:39:35;101778.40;;;
79495;BMP180;68951;53.130;18.104;2023-06-04T11:42:05;101776.20;;;
79495;BMP180;68951;53.130;18.104;2023-06-04T11:44:33;101773.20;;;
79495;BMP180;68951;53.130;18.104;2023-06-04T11:47:00;101773.60;;;
79495;BMP180;68951;53.130;18.104;2023-06-04T11:49:28;101773.80;;;
79495;BMP180;68951;53.130;18.104;2023-06-04T11:51:54;101774.60;;;
79495;BMP180;68951;53.130;18.104;2023-06-04T11:54:22;101766.20;;;
79495;BMP180;68951;53.130;18.104;2023-06-04T11:56:50;101764.20;;;
79495;BMP180;68951;53.130;18.104;2023-06-04T11:59:18;101764.60;;;
79495;BMP180;68951;53.130;18.104;2023-06-04T12:01:46;101763.80;;;
79495;BMP180;68951;53.130;18.104;2023-06-04T12:04:18;101768.40;;;
79495;BMP180;68951;53.130;18.104;2023-06-04T12:06:56;101767.40;;;
79495;BMP180;68951;53.130;18.104;2023-06-04T12:09:29;101765.40;;;
79495;BMP180;68951;53.130;18.104;2023-06-04T12:12:07;101768.20;;;
79495;BMP180;68951;53.130;18.104;2023-06-04T12:14:34;101765.60;;;
79495;BMP180;68951;53.130;18.104;2023-06-04T12:17:06;101764.40;;;
79495;BMP180;68951;53.130;18.104;2023-06-04T12:19:49;101766.60;;;
79495;BMP180;68951;53.130;18.104;2023-06-04T12:22:17;101762.00;;;
79495;BMP180;68951;53.130;18.104;2023-06-04T12:24:52;101764.60;;;
79495;BMP180;68951;53.130;18.104;2023-06-04T12:27:24;101759.80;;;
79495;BMP180;68951;53.130;18.104;2023-06-04T12:30:03;101760.40;;;
79495;BMP180;68951;53.130;18.104;2023-06-04T12:32:35;101759.00;;;
79495;BMP180;68951;53.130;18.104;2023-06-04T12:35:02;101757.40;;;
79495;BMP180;68951;53.130;18.104;2023-06-04T12:37:29;101757.00;;;
79495;BMP180;68951;53.130;18.104;2023-06-04T12:39:56;101757.20;;;
79495;BMP180;68951;53.130;18.104;2023-06-04T12:42:23;101755.80;;;
79495;BMP180;68951;53.130;18.104;2023-06-04T12:44:50;101753.40;;;
79495;BMP180;68951;53.130;18.104;2023-06-04T12:47:17;101757.80;;;
79495;BMP180;68951;53.130;18.104;2023-06-04T12:49:45;101759.60;;;
79495;BMP180;68951;53.130;18.104;2023-06-04T12:52:12;101764.00;;;
79495;BMP180;68951;53.130;18.104;2023-06-04T12:54:42;101757.80;;;
79495;BMP180;68951;53.130;18.104;2023-06-04T12:57:09;101758.60;;;
79495;BMP180;68951;53.130;18.104;2023-06-04T12:59:36;101762.20;;;
79495;BMP180;68951;53.130;18.104;2023-06-04T13:02:03;101760.40;;;
79495;BMP180;68951;53.130;18.104;2023-06-04T13:04:30;101758.80;;;
79495;BMP180;68951;53.130;18.104;2023-06-04T13:06:57;101756.40;;;
79495;BMP180;68951;53.130;18.104;2023-06-04T13:09:26;101758.80;;;
79495;BMP180;68951;53.130;18.104;2023-06-04T13:11:54;101752.60;;;
79495;BMP180;68951;53.130;18.104;2023-06-04T13:14:21;101752.20;;;
79495;BMP180;68951;53.130;18.104;2023-06-04T13:16:48;101752.60;;;
79495;BMP180;68951;53.130;18.104;2023-06-04T13:19:17;101744.20;;;
79495;BMP180;68951;53.130;18.104;2023-06-04T13:21:47;101747.60;;;
79495;BMP180;68951;53.130;18.104;2023-06-04T13:24:13;101743.60;;;
79495;BMP180;68951;53.130;18.104;2023-06-04T13:26:40;101744.20;;;
79495;BMP180;68951;53.130;18.104;2023-06-04T13:29:09;101744.60;;;
79495;BMP180;68951;53.130;18.104;2023-06-04T13:31:36;101741.60;;;
79495;BMP180;68951;53.130;18.104;2023-06-04T13:34:05;101735.80;;;
79495;BMP180;68951;53.130;18.104;2023-06-04T13:36:31;101736.80;;;
79495;BMP180;68951;53.130;18.104;2023-06-04T13:38:58;101730.80;;;
79495;BMP180;68951;53.130;18.104;2023-06-04T13:41:25;101726.20;;;
79495;BMP180;68951;53.130;18.104;2023-06-04T13:43:53;101732.80;;;
79495;BMP180;68951;53.130;18.104;2023-06-04T13:46:19;101733.00;;;
79495;BMP180;68951;53.130;18.104;2023-06-04T13:48:46;101723.60;;;
79495;BMP180;68951;53.130;18.104;2023-06-04T13:51:13;101726.80;;;
79495;BMP180;68951;53.130;18.104;2023-06-04T13:53:40;101724.80;;;
79495;BMP180;68951;53.130;18.104;2023-06-04T13:56:07;101729.40;;;
79495;BMP180;68951;53.130;18.104;2023-06-04T13:58:34;101731.20;;;
79495;BMP180;68951;53.130;18.104;2023-06-04T14:01:00;101728.20;;;
79495;BMP180;68951;53.130;18.104;2023-06-04T14:03:27;101728.20;;;
79495;BMP180;68951;53.130;18.104;2023-06-04T14:05:54;101730.40;;;
79495;BMP180;68951;53.130;18.104;2023-06-04T14:08:21;101728.40;;;
79495;BMP180;68951;53.130;18.104;2023-06-04T14:10:48;101727.80;;;
79495;BMP180;68951;53.130;18.104;2023-06-04T14:13:18;101727.60;;;
79495;BMP180;68951;53.130;18.104;2023-06-04T14:15:45;101723.60;;;
79495;BMP180;68951;53.130;18.104;2023-06-04T14:18:12;101718.60;;;
79495;BMP180;68951;53.130;18.104;2023-06-04T14:20:39;101715.60;;;
79495;BMP180;68951;53.130;18.104;2023-06-04T14:23:06;101714.20;;;
79495;BMP180;68951;53.130;18.104;2023-06-04T14:25:33;101714.60;;;
79495;BMP180;68951;53.130;18.104;2023-06-04T14:28:03;101720.00;;;
79495;BMP180;68951;53.130;18.104;2023-06-04T14:30:30;101715.80;;;
79495;BMP180;68951;53.130;18.104;2023-06-04T14:32:57;101717.20;;;
79495;BMP180;68951;53.130;18.104;2023-06-04T14:35:23;101709.40;;;
79495;BMP180;68951;53.130;18.104;2023-06-04T14:37:50;101704.80;;;
79495;BMP180;68951;53.130;18.104;2023-06-04T14:40:17;101708.00;;;
79495;BMP180;68951;53.130;18.104;2023-06-04T14:42:44;101707.80;;;
79495;BMP180;68951;53.130;18.104;2023-06-04T14:45:11;101709.60;;;
79495;BMP180;68951;53.130;18.104;2023-06-04T14:47:38;101720.40;;;
79495;BMP180;68951;53.130;18.104;2023-06-04T14:50:05;101714.60;;;
79495;BMP180;68951;53.130;18.104;2023-06-04T14:52:32;101716.60;;;
79495;BMP180;68951;53.130;18.104;2023-06-04T14:54:59;101711.00;;;
79495;BMP180;68951;53.130;18.104;2023-06-04T14:57:26;101713.60;;;
79495;BMP180;68951;53.130;18.104;2023-06-04T14:59:53;101709.00;;;
79495;BMP180;68951;53.130;18.104;2023-06-04T15:02:20;101709.40;;;
79495;BMP180;68951;53.130;18.104;2023-06-04T15:04:47;101708.40;;;